sensor_id;sensor_type;location;lat;lon;timestamp;pressure;altitude;pressure_sealevel;temperature;humidity
63405;BME280;49541;57.840;12.306;2024-03-02T00:04:45;100098.88;;;7.09;100.00
63405;BME280;49541;57.840;12.306;2024-03-02T00:09:45;100094.88;;;7.26;100.00
63405;BME280;49541;57.840;12.306;2024-03-02T00:14:46;100106.91;;;7.30;100.00
63405;BME280;49541;57.840;12.306;2024-03-02T00:19:46;100105.88;;;7.10;100.00
63405;BME280;49541;57.840;12.306;2024-03-02T00:24:46;100107.66;;;7.09;100.00
63405;BME280;49541;57.840;12.306;2024-03-02T00:29:47;100115.25;;;7.25;100.00
63405;BME280;49541;57.840;12.306;2024-03-02T00:34:47;100113.22;;;6.84;100.00
63405;BME280;49541;57.840;12.306;2024-03-02T00:39:48;100110.22;;;7.00;100.00
63405;BME280;49541;57.840;12.306;2024-03-02T00:44:49;100112.28;;;7.39;100.00
63405;BME280;49541;57.840;12.306;2024-03-02T00:49:49;100120.38;;;7.38;100.00
63405;BME280;49541;57.840;12.306;2024-03-02T00:54:55;100129.63;;;7.44;100.00
63405;BME280;49541;57.840;12.306;2024-03-02T00:59:57;100117.59;;;7.39;100.00
63405;BME280;49541;57.840;12.306;2024-03-02T01:04:57;100134.78;;;7.56;100.00
63405;BME280;49541;57.840;12.306;2024-03-02T01:09:57;100139.75;;;7.38;100.00
63405;BME280;49541;57.840;12.306;2024-03-02T01:14:57;100136.91;;;7.19;100.00
63405;BME280;49541;57.840;12.306;2024-03-02T01:19:58;100128.53;;;7.57;100.00
63405;BME280;49541;57.840;12.306;2024-03-02T01:24:58;100132.19;;;7.34;100.00
63405;BME280;49541;57.840;12.306;2024-03-02T01:29:58;100136.13;;;7.51;100.00
63405;BME280;49541;57.840;12.306;2024-03-02T01:34:59;100142.13;;;7.64;100.00
63405;BME280;49541;57.840;12.306;2024-03-02T01:40:00;100123.44;;;7.11;100.00
63405;BME280;49541;57.840;12.306;2024-03-02T01:45:00;100125.81;;;7.14;100.00
63405;BME280;49541;57.840;12.306;2024-03-02T01:50:00;100112.44;;;7.27;100.00
63405;BME280;49541;57.840;12.306;2024-03-02T01:55:01;100096.00;;;7.01;100.00
63405;BME280;49541;57.840;12.306;2024-03-02T02:00:01;100091.69;;;6.66;100.00
63405;BME280;49541;57.840;12.306;2024-03-02T02:05:01;100097.69;;;6.79;100.00
63405;BME280;49541;57.840;12.306;2024-03-02T02:10:01;100091.19;;;6.94;100.00
63405;BME280;49541;57.840;12.306;2024-03-02T02:15:02;100064.50;;;6.97;100.00
63405;BME280;49541;57.840;12.306;2024-03-02T02:20:03;100056.31;;;6.89;100.00
63405;BME280;49541;57.840;12.306;2024-03-02T02:25:05;100068.97;;;6.74;100.00
63405;BME280;49541;57.840;12.306;2024-03-02T02:30:06;100070.53;;;6.66;100.00
63405;BME280;49541;57.840;12.306;2024-03-02T02:35:06;100062.84;;;6.63;100.00
63405;BME280;49541;57.840;12.306;2024-03-02T02:40:07;100057.78;;;6.48;100.00
63405;BME280;49541;57.840;12.306;2024-03-02T02:45:07;100049.84;;;6.60;100.00
63405;BME280;49541;57.840;12.306;2024-03-02T02:50:08;100049.38;;;6.66;100.00
63405;BME280;49541;57.840;12.306;2024-03-02T02:55:09;100046.22;;;6.38;100.00
63405;BME280;49541;57.840;12.306;2024-03-02T03:00:10;100040.22;;;6.47;100.00
63405;BME280;49541;57.840;12.306;2024-03-02T03:05:14;100034.78;;;6.94;100.00
63405;BME280;49541;57.840;12.306;2024-03-02T03:10:14;100029.41;;;6.84;100.00
63405;BME280;49541;57.840;12.306;2024-03-02T03:15:14;100018.94;;;6.38;100.00
63405;BME280;49541;57.840;12.306;2024-03-02T03:20:16;100019.06;;;6.47;100.00
63405;BME280;49541;57.840;12.306;2024-03-02T03:25:16;100017.13;;;6.49;100.00
63405;BME280;49541;57.840;12.306;2024-03-02T03:30:17;100018.09;;;6.48;100.00
63405;BME280;49541;57.840;12.306;2024-03-02T03:35:17;100023.63;;;6.34;100.00
63405;BME280;49541;57.840;12.306;2024-03-02T03:40:18;100031.81;;;6.20;100.00
63405;BME280;49541;57.840;12.306;2024-03-02T03:45:19;100028.19;;;6.21;100.00
63405;BME280;49541;57.840;12.306;2024-03-02T03:50:20;100030.81;;;5.98;100.00
63405;BME280;49541;57.840;12.306;2024-03-02T03:55:20;100038.75;;;5.98;100.00
63405;BME280;49541;57.840;12.306;2024-03-02T04:00:20;100050.09;;;5.87;100.00
63405;BME280;49541;57.840;12.306;2024-03-02T04:05:20;100042.38;;;5.84;100.00
63405;BME280;49541;57.840;12.306;2024-03-02T04:10:21;100041.53;;;5.84;100.00
63405;BME280;49541;57.840;12.306;2024-03-02T04:15:21;100039.50;;;5.52;100.00
63405;BME280;49541;57.840;12.306;2024-03-02T04:20:23;100023.31;;;5.92;100.00
63405;BME280;49541;57.840;12.306;2024-03-02T04:25:23;100028.97;;;5.87;100.00
63405;BME280;49541;57.840;12.306;2024-03-02T04:30:23;100024.56;;;5.64;100.00
63405;BME280;49541;57.840;12.306;2024-03-02T04:35:23;100023.63;;;5.76;100.00
63405;BME280;49541;57.840;12.306;2024-03-02T04:40:25;100024.69;;;5.73;100.00
63405;BME280;49541;57.840;12.306;2024-03-02T04:45:25;100030.72;;;5.75;100.00
63405;BME280;49541;57.840;12.306;2024-03-02T04:50:25;100032.59;;;5.62;100.00
63405;BME280;49541;57.840;12.306;2024-03-02T04:55:25;100024.19;;;5.57;100.00
63405;BME280;49541;57.840;12.306;2024-03-02T05:00:28;100022.56;;;5.43;100.00
63405;BME280;49541;57.840;12.306;2024-03-02T05:05:29;100027.44;;;5.72;100.00
63405;BME280;49541;57.840;12.306;2024-03-02T05:10:29;100024.44;;;5.65;100.00
63405;BME280;49541;57.840;12.306;2024-03-02T05:15:29;100022.84;;;5.63;100.00
63405;BME280;49541;57.840;12.306;2024-03-02T05:20:29;100019.44;;;5.85;100.00
63405;BME280;49541;57.840;12.306;2024-03-02T05:25:30;100019.66;;;5.70;100.00
63405;BME280;49541;57.840;12.306;2024-03-02T05:30:30;100019.31;;;5.75;100.00
63405;BME280;49541;57.840;12.306;2024-03-02T05:35:30;100011.22;;;5.65;100.00
63405;BME280;49541;57.840;12.306;2024-03-02T05:40:30;100016.97;;;5.59;100.00
63405;BME280;49541;57.840;12.306;2024-03-02T05:45:30;100012.28;;;5.63;100.00
63405;BME280;49541;57.840;12.306;2024-03-02T05:50:34;100019.41;;;5.73;100.00
63405;BME280;49541;57.840;12.306;2024-03-02T05:55:35;100028.69;;;5.79;100.00
63405;BME280;49541;57.840;12.306;2024-03-02T06:00:35;100026.53;;;5.84;100.00
63405;BME280;49541;57.840;12.306;2024-03-02T06:05:35;100032.66;;;5.85;100.00
63405;BME280;49541;57.840;12.306;2024-03-02T06:10:35;100029.22;;;5.95;100.00
63405;BME280;49541;57.840;12.306;2024-03-02T06:15:36;100034.28;;;5.99;100.00
63405;BME280;49541;57.840;12.306;2024-03-02T06:20:36;100032.38;;;6.12;100.00
63405;BME280;49541;57.840;12.306;2024-03-02T06:25:37;100041.97;;;6.13;100.00
63405;BME280;49541;57.840;12.306;2024-03-02T06:30:37;100035.88;;;6.12;100.00
63405;BME280;49541;57.840;12.306;2024-03-02T06:35:37;100030.84;;;6.21;100.00
63405;BME280;49541;57.840;12.306;2024-03-02T06:40:38;100026.53;;;6.20;100.00
63405;BME280;49541;57.840;12.306;2024-03-02T06:45:39;100040.22;;;6.25;100.00
63405;BME280;49541;57.840;12.306;2024-03-02T06:50:39;100031.09;;;6.29;100.00
63405;BME280;49541;57.840;12.306;2024-03-02T06:55:40;100040.94;;;6.38;100.00
63405;BME280;49541;57.840;12.306;2024-03-02T07:00:40;100035.91;;;6.35;100.00
63405;BME280;49541;57.840;12.306;2024-03-02T07:05:40;100046.72;;;6.43;100.00
63405;BME280;49541;57.840;12.306;2024-03-02T07:10:41;100049.13;;;6.35;100.00
63405;BME280;49541;57.840;12.306;2024-03-02T07:15:41;100052.59;;;6.47;100.00
63405;BME280;49541;57.840;12.306;2024-03-02T07:21:10;100054.66;;;6.54;100.00
63405;BME280;49541;57.840;12.306;2024-03-02T07:26:10;100059.94;;;6.54;100.00
63405;BME280;49541;57.840;12.306;2024-03-02T07:31:11;100052.59;;;6.58;100.00
63405;BME280;49541;57.840;12.306;2024-03-02T07:36:11;100052.97;;;6.76;100.00
63405;BME280;49541;57.840;12.306;2024-03-02T07:41:11;100042.59;;;6.95;100.00
63405;BME280;49541;57.840;12.306;2024-03-02T07:46:12;100041.38;;;7.11;100.00
63405;BME280;49541;57.840;12.306;2024-03-02T07:51:12;100037.81;;;6.78;100.00
63405;BME280;49541;57.840;12.306;2024-03-02T07:56:13;100034.44;;;6.87;100.00
63405;BME280;49541;57.840;12.306;2024-03-02T08:01:14;100044.19;;;6.75;100.00
63405;BME280;49541;57.840;12.306;2024-03-02T08:06:15;100048.63;;;6.97;100.00
63405;BME280;49541;57.840;12.306;2024-03-02T08:11:15;100045.59;;;7.02;100.00
63405;BME280;49541;57.840;12.306;2024-03-02T08:16:16;100049.84;;;7.37;100.00
63405;BME280;49541;57.840;12.306;2024-03-02T08:21:16;100053.47;;;7.36;100.00
63405;BME280;49541;57.840;12.306;2024-03-02T08:26:16;100042.44;;;7.52;100.00
63405;BME280;49541;57.840;12.306;2024-03-02T08:31:17;100033.28;;;7.56;100.00
63405;BME280;49541;57.840;12.306;2024-03-02T08:36:17;100034.16;;;7.45;100.00
63405;BME280;49541;57.840;12.306;2024-03-02T08:41:17;100033.94;;;7.37;100.00
63405;BME280;49541;57.840;12.306;2024-03-02T08:46:18;100034.78;;;7.37;100.00
63405;BME280;49541;57.840;12.306;2024-03-02T08:51:18;100038.19;;;7.61;100.00
63405;BME280;49541;57.840;12.306;2024-03-02T08:56:19;100029.63;;;7.57;100.00
63405;BME280;49541;57.840;12.306;2024-03-02T09:01:20;100033.53;;;7.74;100.00
63405;BME280;49541;57.840;12.306;2024-03-02T09:06:20;100028.50;;;7.71;100.00
63405;BME280;49541;57.840;12.306;2024-03-02T09:11:21;100031.28;;;7.69;100.00
63405;BME280;49541;57.840;12.306;2024-03-02T09:16:21;100040.94;;;7.70;100.00
63405;BME280;49541;57.840;12.306;2024-03-02T09:21:21;100035.94;;;7.77;100.00
63405;BME280;49541;57.840;12.306;2024-03-02T09:26:22;100038.81;;;7.85;100.00
63405;BME280;49541;57.840;12.306;2024-03-02T09:31:24;100031.50;;;7.98;100.00
63405;BME280;49541;57.840;12.306;2024-03-02T09:36:24;100043.38;;;8.04;100.00
63405;BME280;49541;57.840;12.306;2024-03-02T09:41:25;100047.91;;;8.13;100.00
63405;BME280;49541;57.840;12.306;2024-03-02T09:46:25;100042.44;;;8.36;100.00
63405;BME280;49541;57.840;12.306;2024-03-02T09:51:25;100037.63;;;8.41;100.00
63405;BME280;49541;57.840;12.306;2024-03-02T09:56:26;100032.53;;;8.38;100.00
63405;BME280;49541;57.840;12.306;2024-03-02T10:01:26;100036.78;;;8.71;100.00
63405;BME280;49541;57.840;12.306;2024-03-02T10:06:26;100043.16;;;8.69;100.00
63405;BME280;49541;57.840;12.306;2024-03-02T10:11:31;100032.56;;;8.69;100.00
63405;BME280;49541;57.840;12.306;2024-03-02T10:16:32;100036.44;;;8.55;100.00
63405;BME280;49541;57.840;12.306;2024-03-02T10:21:33;100043.47;;;8.75;100.00
63405;BME280;49541;57.840;12.306;2024-03-02T10:26:33;100030.06;;;8.77;100.00
63405;BME280;49541;57.840;12.306;2024-03-02T10:31:33;100030.53;;;8.82;100.00
63405;BME280;49541;57.840;12.306;2024-03-02T10:36:34;100025.59;;;8.77;100.00
63405;BME280;49541;57.840;12.306;2024-03-02T10:41:38;100038.91;;;8.87;100.00
63405;BME280;49541;57.840;12.306;2024-03-02T10:46:38;100032.06;;;8.94;100.00
63405;BME280;49541;57.840;12.306;2024-03-02T10:51:39;100026.75;;;8.94;100.00
63405;BME280;49541;57.840;12.306;2024-03-02T10:56:40;100038.25;;;9.05;100.00
63405;BME280;49541;57.840;12.306;2024-03-02T11:01:41;100030.72;;;9.10;100.00
63405;BME280;49541;57.840;12.306;2024-03-02T11:06:49;100029.75;;;9.11;100.00
63405;BME280;49541;57.840;12.306;2024-03-02T11:11:51;100030.59;;;9.21;100.00
63405;BME280;49541;57.840;12.306;2024-03-02T11:16:55;100034.41;;;9.38;100.00
63405;BME280;49541;57.840;12.306;2024-03-02T11:21:56;100032.44;;;9.59;100.00
63405;BME280;49541;57.840;12.306;2024-03-02T11:26:56;100035.81;;;9.61;100.00
63405;BME280;49541;57.840;12.306;2024-03-02T11:31:58;100036.63;;;9.72;100.00
63405;BME280;49541;57.840;12.306;2024-03-02T11:37:01;100032.72;;;9.66;100.00
63405;BME280;49541;57.840;12.306;2024-03-02T11:42:02;100030.06;;;9.86;100.00
63405;BME280;49541;57.840;12.306;2024-03-02T11:47:06;100038.16;;;9.84;100.00
63405;BME280;49541;57.840;12.306;2024-03-02T11:52:08;100033.25;;;9.99;100.00
63405;BME280;49541;57.840;12.306;2024-03-02T11:57:09;100043.06;;;9.79;100.00
63405;BME280;49541;57.840;12.306;2024-03-02T12:02:14;100048.09;;;9.82;100.00
63405;BME280;49541;57.840;12.306;2024-03-02T12:07:21;100050.88;;;10.00;100.00
63405;BME280;49541;57.840;12.306;2024-03-02T12:12:25;100054.78;;;9.96;100.00
63405;BME280;49541;57.840;12.306;2024-03-02T12:17:28;100054.78;;;10.15;100.00
63405;BME280;49541;57.840;12.306;2024-03-02T12:22:29;100055.19;;;10.20;100.00
63405;BME280;49541;57.840;12.306;2024-03-02T12:27:29;100048.91;;;10.02;100.00
63405;BME280;49541;57.840;12.306;2024-03-02T12:32:29;100055.78;;;9.66;100.00
63405;BME280;49541;57.840;12.306;2024-03-02T12:37:30;100057.63;;;9.65;100.00
63405;BME280;49541;57.840;12.306;2024-03-02T12:42:30;100055.09;;;9.93;100.00
63405;BME280;49541;57.840;12.306;2024-03-02T12:47:31;100050.06;;;9.80;100.00
63405;BME280;49541;57.840;12.306;2024-03-02T12:52:31;100051.31;;;9.86;100.00
63405;BME280;49541;57.840;12.306;2024-03-02T12:57:34;100055.66;;;9.87;100.00
63405;BME280;49541;57.840;12.306;2024-03-02T13:02:35;100061.53;;;9.80;100.00
63405;BME280;49541;57.840;12.306;2024-03-02T13:07:35;100054.28;;;9.73;100.00
63405;BME280;49541;57.840;12.306;2024-03-02T13:12:36;100066.72;;;9.92;100.00
63405;BME280;49541;57.840;12.306;2024-03-02T13:17:36;100062.94;;;9.84;100.00
63405;BME280;49541;57.840;12.306;2024-03-02T13:22:37;100056.19;;;10.00;100.00
63405;BME280;49541;57.840;12.306;2024-03-02T13:27:37;100063.75;;;10.04;100.00
63405;BME280;49541;57.840;12.306;2024-03-02T13:32:37;100059.81;;;10.09;100.00
63405;BME280;49541;57.840;12.306;2024-03-02T13:37:38;100057.06;;;10.00;100.00
63405;BME280;49541;57.840;12.306;2024-03-02T13:42:39;100062.19;;;10.02;100.00
63405;BME280;49541;57.840;12.306;2024-03-02T13:47:39;100066.56;;;10.03;100.00
63405;BME280;49541;57.840;12.306;2024-03-02T13:52:39;100065.69;;;10.22;100.00
63405;BME280;49541;57.840;12.306;2024-03-02T13:57:39;100066.09;;;10.27;100.00
63405;BME280;49541;57.840;12.306;2024-03-02T14:02:40;100064.00;;;10.21;100.00
63405;BME280;49541;57.840;12.306;2024-03-02T14:07:40;100069.75;;;10.16;100.00
63405;BME280;49541;57.840;12.306;2024-03-02T14:12:41;100075.75;;;10.48;100.00
63405;BME280;49541;57.840;12.306;2024-03-02T14:17:41;100066.06;;;10.56;100.00
63405;BME280;49541;57.840;12.306;2024-03-02T14:22:42;100064.53;;;10.44;100.00
63405;BME280;49541;57.840;12.306;2024-03-02T14:27:43;100068.22;;;10.33;100.00
63405;BME280;49541;57.840;12.306;2024-03-02T14:32:43;100068.66;;;10.66;100.00
63405;BME280;49541;57.840;12.306;2024-03-02T14:37:44;100071.19;;;10.68;100.00
63405;BME280;49541;57.840;12.306;2024-03-02T14:42:44;100076.19;;;10.71;100.00
63405;BME280;49541;57.840;12.306;2024-03-02T14:47:47;100075.94;;;10.74;100.00
63405;BME280;49541;57.840;12.306;2024-03-02T14:52:47;100075.03;;;10.83;100.00
63405;BME280;49541;57.840;12.306;2024-03-02T14:57:47;100069.41;;;10.86;100.00
63405;BME280;49541;57.840;12.306;2024-03-02T15:02:48;100073.06;;;10.85;100.00
63405;BME280;49541;57.840;12.306;2024-03-02T15:07:48;100071.78;;;10.89;100.00
63405;BME280;49541;57.840;12.306;2024-03-02T15:12:49;100081.56;;;10.61;100.00
63405;BME280;49541;57.840;12.306;2024-03-02T15:17:49;100089.75;;;10.87;100.00
63405;BME280;49541;57.840;12.306;2024-03-02T15:22:49;100094.06;;;10.88;100.00
63405;BME280;49541;57.840;12.306;2024-03-02T15:27:49;100092.16;;;10.80;100.00
63405;BME280;49541;57.840;12.306;2024-03-02T15:32:50;100094.38;;;10.85;100.00
63405;BME280;49541;57.840;12.306;2024-03-02T15:37:51;100094.25;;;10.77;100.00
63405;BME280;49541;57.840;12.306;2024-03-02T15:42:51;100104.59;;;11.17;100.00
63405;BME280;49541;57.840;12.306;2024-03-02T15:47:51;100111.41;;;11.02;100.00
63405;BME280;49541;57.840;12.306;2024-03-02T15:52:52;100096.78;;;10.78;100.00
63405;BME280;49541;57.840;12.306;2024-03-02T15:57:52;100104.25;;;10.65;100.00
63405;BME280;49541;57.840;12.306;2024-03-02T16:02:52;100109.28;;;10.68;100.00
63405;BME280;49541;57.840;12.306;2024-03-02T16:07:53;100110.50;;;10.83;100.00
63405;BME280;49541;57.840;12.306;2024-03-02T16:12:53;100125.19;;;10.88;100.00
63405;BME280;49541;57.840;12.306;2024-03-02T16:17:55;100131.25;;;11.07;100.00
63405;BME280;49541;57.840;12.306;2024-03-02T16:22:56;100132.91;;;11.18;100.00
63405;BME280;49541;57.840;12.306;2024-03-02T16:27:56;100129.03;;;11.03;100.00
63405;BME280;49541;57.840;12.306;2024-03-02T16:32:57;100139.28;;;10.70;100.00
63405;BME280;49541;57.840;12.306;2024-03-02T16:37:58;100144.91;;;10.57;100.00
63405;BME280;49541;57.840;12.306;2024-03-02T16:42:58;100151.31;;;10.64;100.00
63405;BME280;49541;57.840;12.306;2024-03-02T16:47:59;100158.72;;;10.71;100.00
63405;BME280;49541;57.840;12.306;2024-03-02T16:52:59;100168.16;;;10.55;100.00
63405;BME280;49541;57.840;12.306;2024-03-02T16:57:59;100161.91;;;10.37;100.00
63405;BME280;49541;57.840;12.306;2024-03-02T17:02:59;100178.09;;;10.53;100.00
63405;BME280;49541;57.840;12.306;2024-03-02T17:08:00;100179.09;;;10.13;100.00
63405;BME280;49541;57.840;12.306;2024-03-02T17:13:00;100189.88;;;10.21;100.00
63405;BME280;49541;57.840;12.306;2024-03-02T17:18:00;100192.97;;;10.07;100.00
63405;BME280;49541;57.840;12.306;2024-03-02T17:23:00;100202.59;;;10.28;100.00
63405;BME280;49541;57.840;12.306;2024-03-02T17:33:19;100204.84;;;10.03;100.00
63405;BME280;49541;57.840;12.306;2024-03-02T17:38:19;100205.97;;;10.10;100.00
63405;BME280;49541;57.840;12.306;2024-03-02T17:43:20;100209.06;;;10.25;100.00
63405;BME280;49541;57.840;12.306;2024-03-02T17:48:20;100215.22;;;10.25;100.00
63405;BME280;49541;57.840;12.306;2024-03-02T17:53:21;100216.19;;;9.86;100.00
63405;BME280;49541;57.840;12.306;2024-03-02T17:58:22;100210.47;;;10.10;100.00
63405;BME280;49541;57.840;12.306;2024-03-02T18:03:22;100219.56;;;10.07;100.00
63405;BME280;49541;57.840;12.306;2024-03-02T18:08:22;100217.78;;;10.37;100.00
63405;BME280;49541;57.840;12.306;2024-03-02T18:13:22;100227.94;;;10.12;100.00
63405;BME280;49541;57.840;12.306;2024-03-02T18:18:23;100227.84;;;10.43;100.00
63405;BME280;49541;57.840;12.306;2024-03-02T18:23:23;100232.00;;;9.97;100.00
63405;BME280;49541;57.840;12.306;2024-03-02T18:28:23;100245.69;;;9.82;100.00
63405;BME280;49541;57.840;12.306;2024-03-02T18:33:23;100241.28;;;10.32;100.00
63405;BME280;49541;57.840;12.306;2024-03-02T18:38:24;100239.97;;;9.97;100.00
63405;BME280;49541;57.840;12.306;2024-03-02T18:43:24;100249.66;;;10.08;100.00
63405;BME280;49541;57.840;12.306;2024-03-02T18:48:24;100254.25;;;9.96;100.00
63405;BME280;49541;57.840;12.306;2024-03-02T18:53:24;100261.28;;;10.16;100.00
63405;BME280;49541;57.840;12.306;2024-03-02T18:58:25;100263.09;;;10.16;100.00
63405;BME280;49541;57.840;12.306;2024-03-02T19:03:25;100259.72;;;9.94;100.00
63405;BME280;49541;57.840;12.306;2024-03-02T19:08:25;100267.97;;;10.01;100.00
63405;BME280;49541;57.840;12.306;2024-03-02T19:13:25;100273.91;;;10.24;100.00
63405;BME280;49541;57.840;12.306;2024-03-02T19:18:26;100270.94;;;10.08;100.00
63405;BME280;49541;57.840;12.306;2024-03-02T19:23:26;100271.78;;;10.28;100.00
63405;BME280;49541;57.840;12.306;2024-03-02T19:28:29;100269.25;;;10.16;100.00
63405;BME280;49541;57.840;12.306;2024-03-02T19:33:30;100280.28;;;10.02;100.00
63405;BME280;49541;57.840;12.306;2024-03-02T19:38:30;100290.34;;;10.49;100.00
63405;BME280;49541;57.840;12.306;2024-03-02T19:43:33;100287.47;;;11.09;100.00
63405;BME280;49541;57.840;12.306;2024-03-02T19:48:33;100292.03;;;10.50;100.00
63405;BME280;49541;57.840;12.306;2024-03-02T19:53:34;100302.25;;;10.35;100.00
63405;BME280;49541;57.840;12.306;2024-03-02T19:58:34;100310.34;;;10.62;100.00
63405;BME280;49541;57.840;12.306;2024-03-02T20:03:36;100314.59;;;10.65;100.00
63405;BME280;49541;57.840;12.306;2024-03-02T20:08:36;100317.81;;;10.59;100.00
63405;BME280;49541;57.840;12.306;2024-03-02T20:13:36;100319.47;;;10.31;100.00
63405;BME280;49541;57.840;12.306;2024-03-02T20:18:36;100328.72;;;10.65;100.00
63405;BME280;49541;57.840;12.306;2024-03-02T20:23:37;100325.53;;;10.12;100.00
63405;BME280;49541;57.840;12.306;2024-03-02T20:28:37;100327.44;;;10.31;100.00
63405;BME280;49541;57.840;12.306;2024-03-02T20:33:37;100330.28;;;10.58;100.00
63405;BME280;49541;57.840;12.306;2024-03-02T20:38:38;100323.81;;;10.71;100.00
63405;BME280;49541;57.840;12.306;2024-03-02T20:43:38;100337.13;;;10.71;100.00
63405;BME280;49541;57.840;12.306;2024-03-02T20:48:38;100337.97;;;10.61;100.00
63405;BME280;49541;57.840;12.306;2024-03-02T20:53:39;100342.16;;;10.44;100.00
63405;BME280;49541;57.840;12.306;2024-03-02T20:58:39;100357.69;;;10.49;100.00
63405;BME280;49541;57.840;12.306;2024-03-02T21:03:44;100359.66;;;10.47;100.00
63405;BME280;49541;57.840;12.306;2024-03-02T21:08:44;100367.06;;;10.34;100.00
63405;BME280;49541;57.840;12.306;2024-03-02T21:13:45;100380.53;;;10.42;100.00
63405;BME280;49541;57.840;12.306;2024-03-02T21:18:45;100383.25;;;10.21;100.00
63405;BME280;49541;57.840;12.306;2024-03-02T21:23:45;100380.72;;;10.19;100.00
63405;BME280;49541;57.840;12.306;2024-03-02T21:28:45;100389.22;;;10.44;100.00
63405;BME280;49541;57.840;12.306;2024-03-02T21:33:46;100379.47;;;10.23;100.00
63405;BME280;49541;57.840;12.306;2024-03-02T21:38:46;100390.09;;;10.23;100.00
63405;BME280;49541;57.840;12.306;2024-03-02T21:43:47;100383.31;;;9.69;100.00
63405;BME280;49541;57.840;12.306;2024-03-02T21:48:47;100378.03;;;10.10;100.00
63405;BME280;49541;57.840;12.306;2024-03-02T21:53:51;100374.91;;;10.35;100.00
63405;BME280;49541;57.840;12.306;2024-03-02T21:58:53;100382.69;;;10.68;100.00
63405;BME280;49541;57.840;12.306;2024-03-02T22:03:53;100381.69;;;10.88;100.00
63405;BME280;49541;57.840;12.306;2024-03-02T22:08:53;100382.28;;;10.82;100.00
63405;BME280;49541;57.840;12.306;2024-03-02T22:13:54;100385.06;;;10.80;100.00
63405;BME280;49541;57.840;12.306;2024-03-02T22:18:54;100380.44;;;10.82;100.00
63405;BME280;49541;57.840;12.306;2024-03-02T22:23:54;100393.75;;;11.02;100.00
63405;BME280;49541;57.840;12.306;2024-03-02T22:28:55;100396.56;;;10.81;100.00
63405;BME280;49541;57.840;12.306;2024-03-02T22:33:55;100394.56;;;10.63;100.00
63405;BME280;49541;57.840;12.306;2024-03-02T22:38:55;100400.03;;;10.52;100.00
63405;BME280;49541;57.840;12.306;2024-03-02T22:43:55;100398.34;;;10.51;100.00
63405;BME280;49541;57.840;12.306;2024-03-02T22:48:58;100393.09;;;10.30;100.00
63405;BME280;49541;57.840;12.306;2024-03-02T22:53:58;100387.53;;;10.43;100.00
63405;BME280;49541;57.840;12.306;2024-03-02T22:58:58;100378.84;;;10.41;100.00
63405;BME280;49541;57.840;12.306;2024-03-02T23:03:59;100387.91;;;10.29;100.00
63405;BME280;49541;57.840;12.306;2024-03-02T23:08:59;100386.03;;;10.19;100.00
63405;BME280;49541;57.840;12.306;2024-03-02T23:13:59;100379.47;;;10.23;100.00
63405;BME280;49541;57.840;12.306;2024-03-02T23:18:59;100386.69;;;10.42;100.00
63405;BME280;49541;57.840;12.306;2024-03-02T23:23:59;100376.06;;;10.52;100.00
63405;BME280;49541;57.840;12.306;2024-03-02T23:29:00;100381.41;;;10.52;100.00
63405;BME280;49541;57.840;12.306;2024-03-02T23:34:00;100384.25;;;10.80;100.00
63405;BME280;49541;57.840;12.306;2024-03-02T23:39:03;100393.63;;;11.03;100.00
63405;BME280;49541;57.840;12.306;2024-03-02T23:44:04;100389.28;;;11.02;100.00
63405;BME280;49541;57.840;12.306;2024-03-02T23:49:07;100402.03;;;10.89;100.00
63405;BME280;49541;57.840;12.306;2024-03-02T23:54:07;100396.44;;;10.82;100.00
63405;BME280;49541;57.840;12.306;2024-03-02T23:59:08;100397.56;;;10.99;100.00
